Nearby METAR Reports

 

KBAX - Bad Axe, Michigan, USA
Distance from station: ESE 22mi, 35km
Updated: Fri, 04-Dec-2020 2:35am EST
Overcast
Overcast
 Wind from SW
Wind: SW 8 mph , 13 km/h
Temperature: 34°F , 1°C
Wind Chill: 27°F , -3°C
Dew Point: 32°F , 0°C
Humidity: 93%
Barometer: 29.81 inHg , 1009.5 hPa
Clouds: Overcast
Visibility: 10 miles , 16 km
Cloud details: Partly cloudy 1800 ft
Mostly cloudy 2200 ft
Overcast 4000 ft
2020/12/04 07:35 KBAX 040735Z AUTO 23007KT 10SM SCT018 BKN022 OVC040 01/00 A2981 RMK AO2 T00120000
KFNT - Flint, Michigan, USA
Distance from station: SSW 68mi, 109km
Updated: Fri, 04-Dec-2020 1:53am EST
Overcast
Overcast
 Wind from SW
Wind: SW 9 mph , 15 km/h
Temperature: 39°F , 4°C
Wind Chill: 33°F , 1°C
Dew Point: 27°F , -3°C
Humidity: 61%
Barometer: 29.87 inHg , 1011.5 hPa
Clouds: Overcast
Visibility: 10 miles , 16 km
Cloud details: Overcast 11000 ft
2020/12/04 06:53 KFNT 040653Z AUTO 22008KT 10SM OVC110 04/M03 A2987 RMK AO2 SLP120 T00441028 $
KMBS - Saginaw, Michigan, USA
Distance from station: SW 44mi, 70km
Updated: Fri, 04-Dec-2020 1:53am EST
Overcast
Overcast
 Wind from SW
Wind: SW 13 mph , 20 km/h
Temperature: 37°F , 3°C
Wind Chill: 29°F , -2°C
Dew Point: 30°F , -1°C
Humidity: 75%
Barometer: 29.84 inHg , 1010.5 hPa
Clouds: Overcast
Visibility: 10 miles , 16 km
Cloud details: Mostly cloudy 8000 ft
Overcast 11000 ft
2020/12/04 06:53 KMBS 040653Z AUTO 22011KT 10SM BKN080 OVC110 03/M01 A2984 RMK AO2 SLP109 T00331006
 
KDTW - Detroit/Wayne, Michigan, USA
Distance from station: SSE 117mi, 188km
Updated: Fri, 04-Dec-2020 1:53am EST
Overcast
Overcast
 Wind from SW
Wind: SW 16 mph , 26 km/h
Temperature: 37°F , 3°C
Wind Chill: 28°F , -2°C
Dew Point: 27°F , -3°C
Humidity: 65%
Barometer: 29.93 inHg , 1013.5 hPa
Clouds: Overcast
Visibility: 9 miles , 14 km
Cloud details: Mostly cloudy 8500 ft
Mostly cloudy 12000 ft
Overcast 19000 ft
2020/12/04 06:53 KDTW 040653Z 23014KT 9SM BKN085 BKN120 OVC190 03/M03 A2993 RMK AO2 SLP138 T00281028
KP58 - Port Hope, Michigan, USA
Distance from station: ENE 30mi, 48km
Updated: Fri, 04-Dec-2020 1:57am EST

 Wind from WSW
Wind: WSW 8 mph , 13 km/h
Temperature: 36°F , 2°C
Wind Chill: 30°F , -1°C
Dew Point: 28°F , -2°C
Humidity: 75%
Barometer: 29.81 inHg , 1009.5 hPa
2020/12/04 06:57 KP58 040657Z AUTO 24007KT 02/M02 A2981 RMK AO1 SLP102 T00221017
KCFS - Caro/Tuscola, Michigan, USA
Distance from station: S 31mi, 50km
Updated: Fri, 04-Dec-2020 2:35am EST
Overcast
Overcast
 Wind from SW
Wind: SW 14 mph , 22 km/h, Gust: 21 mph , 33 km/h
Temperature: 37°F , 3°C
Wind Chill: 28°F , -2°C
Dew Point: 32°F , 0°C
Humidity: 81%
Barometer: 29.83 inHg , 1010.2 hPa
Clouds: Overcast
Visibility: 10 miles , 16 km
Cloud details: Partly cloudy 4800 ft
Mostly cloudy 6500 ft
Overcast 7000 ft
2020/12/04 07:35 KCFS 040735Z AUTO 22012G18KT 10SM SCT048 BKN065 OVC070 03/00 A2983 RMK AO2 T00320000
 
KPHN - Port Huron, Michigan, USA
Distance from station: SSE 81mi, 131km
Updated: Fri, 04-Dec-2020 2:35am EST
Overcast
Overcast
 Wind from SSW
Wind: SSW 6 mph , 9 km/h
Temperature: 37°F , 3°C
Wind Chill: 32°F , 0°C
Dew Point: 27°F , -3°C
Humidity: 65%
Barometer: 29.89 inHg , 1012.2 hPa
Clouds: Overcast
Visibility: 10 miles , 16 km
Cloud details: Mostly cloudy 8000 ft
Overcast 9500 ft
2020/12/04 07:35 KPHN 040735Z AUTO 20005KT 10SM BKN080 OVC095 03/M03 A2989 RMK AO2
KPTK - Pontiac, Michigan, USA
Distance from station: S 86mi, 138km
Updated: Fri, 04-Dec-2020 1:53am EST
Overcast
Overcast
 Wind from WSW
Wind: WSW 15 mph , 24 km/h, Gust: 24 mph , 39 km/h
Temperature: 37°F , 3°C
Wind Chill: 28°F , -2°C
Dew Point: 23°F , -5°C
Humidity: 56%
Barometer: 29.87 inHg , 1011.5 hPa
Clouds: Overcast
Visibility: 10 miles , 16 km
Cloud details: Overcast 7500 ft
2020/12/04 06:53 KPTK 040653Z AUTO 24013G21KT 10SM OVC075 03/M05 A2987 RMK AO2 SLP120 T00331050
KMTC - Selfridge Angb, Michigan, USA
Distance from station: SSE 94mi, 151km
Updated: Fri, 04-Dec-2020 1:56am EST
Clear
Clear
 Wind from SW
Wind: SW 12 mph , 19 km/h
Temperature: 37°F , 3°C
Wind Chill: 29°F , -2°C
Dew Point: 27°F , -3°C
Humidity: 65%
Barometer: 29.88 inHg , 1011.9 hPa
Clouds: Clear
Visibility: 10 miles , 16 km
2020/12/04 06:56 KMTC 040656Z AUTO 22010KT 10SM CLR 03/M03 A2988 RMK AO2 SLP127 T00341030 $